createdAt,value
2023-02-11T00:01:17.258Z,10.93
2023-02-11T00:03:46.135Z,13.70
2023-02-11T00:06:15.249Z,17.50
2023-02-11T00:08:47.153Z,11.63
2023-02-11T00:11:16.824Z,10.67
2023-02-11T00:13:46.018Z,24.67
2023-02-11T00:16:16.507Z,18.20
2023-02-11T00:18:45.431Z,29.37
2023-02-11T00:21:14.760Z,12.23
2023-02-11T00:23:46.266Z,19.10
2023-02-11T00:26:16.865Z,19.03
2023-02-11T00:28:45.775Z,17.43
2023-02-11T00:31:14.575Z,20.40
2023-02-11T00:33:43.416Z,15.77
2023-02-11T00:42:12.981Z,17.67
2023-02-11T00:44:41.606Z,13.17
2023-02-11T00:47:10.472Z,22.10
2023-02-11T00:49:40.710Z,12.30
2023-02-11T00:52:09.234Z,15.30
2023-02-11T00:54:37.845Z,14.83
2023-02-11T00:57:06.067Z,21.80
2023-02-11T00:59:34.437Z,31.80
2023-02-11T01:02:02.698Z,18.43
2023-02-11T01:04:31.977Z,15.13
2023-02-11T01:07:00.615Z,15.57
2023-02-11T01:09:28.879Z,13.23
2023-02-11T01:11:57.369Z,16.37
2023-02-11T01:14:25.715Z,21.10
2023-02-11T01:16:54.129Z,19.77
2023-02-11T01:19:22.790Z,7.90
2023-02-11T01:21:50.583Z,17.17
2023-02-11T01:24:19.161Z,5.57
2023-02-11T01:26:47.542Z,12.90
2023-02-11T01:29:16.034Z,14.70
2023-02-11T01:31:44.337Z,12.67
2023-02-11T01:34:13.129Z,11.13
2023-02-11T01:36:41.837Z,13.40
2023-02-11T01:39:09.766Z,17.53
2023-02-11T01:41:38.747Z,10.33
2023-02-11T01:44:24.433Z,11.77
2023-02-11T01:46:53.024Z,10.97
2023-02-11T01:49:23.072Z,10.97
2023-02-11T01:54:38.279Z,18.25
2023-02-11T01:57:22.844Z,14.20
2023-02-11T01:59:55.657Z,14.33
2023-02-11T02:02:25.528Z,23.90
2023-02-11T02:04:58.108Z,27.27
2023-02-11T02:07:40.123Z,25.80
2023-02-11T02:10:09.729Z,17.87
2023-02-11T02:12:37.688Z,23.33
2023-02-11T02:15:22.862Z,16.00
2023-02-11T02:17:55.884Z,11.10
2023-02-11T02:20:33.998Z,8.27
2023-02-11T02:23:07.033Z,14.63
2023-02-11T02:25:55.060Z,19.23
2023-02-11T02:28:28.950Z,6.47
2023-02-11T02:30:59.121Z,16.90
2023-02-11T02:33:38.343Z,7.50
2023-02-11T02:36:11.422Z,5.97
2023-02-11T02:38:41.395Z,16.87
2023-02-11T02:41:20.096Z,6.87
2023-02-11T02:43:50.109Z,15.53
2023-02-11T02:46:20.162Z,6.47
2023-02-11T02:48:55.702Z,18.00
2023-02-11T02:51:28.362Z,12.50
2023-02-11T02:53:58.283Z,12.60
2023-02-11T02:56:43.237Z,6.17
2023-02-11T02:59:12.564Z,4.10
2023-02-11T03:01:42.447Z,9.80
2023-02-11T03:04:29.120Z,23.00
2023-02-11T03:07:02.142Z,13.47
2023-02-11T03:09:31.970Z,12.50
2023-02-11T03:12:02.202Z,11.63
2023-02-11T03:14:31.904Z,13.20
2023-02-11T03:17:01.991Z,10.83
2023-02-11T03:19:31.828Z,16.10
2023-02-11T03:22:00.808Z,16.87
2023-02-11T03:24:33.781Z,19.83
2023-02-11T03:27:03.829Z,12.53
2023-02-11T03:29:45.917Z,15.70
2023-02-11T03:32:22.786Z,13.67
2023-02-11T03:35:03.168Z,10.30
2023-02-11T03:37:42.300Z,9.70
2023-02-11T03:40:14.978Z,8.37
2023-02-11T03:42:47.834Z,5.63
2023-02-11T03:45:18.165Z,6.73
2023-02-11T03:50:14.851Z,9.08
2023-02-11T03:52:43.754Z,17.37
2023-02-11T03:55:16.089Z,3.60
2023-02-11T03:57:44.452Z,5.70
2023-02-11T04:00:18.237Z,9.13
2023-02-11T04:02:46.902Z,4.47
2023-02-11T04:05:17.320Z,9.50
2023-02-11T04:07:45.767Z,13.13
2023-02-11T04:10:14.348Z,9.17
2023-02-11T04:12:42.722Z,13.30
2023-02-11T04:15:11.197Z,9.97
2023-02-11T04:17:39.477Z,9.90
2023-02-11T04:20:07.970Z,12.40
2023-02-11T04:22:36.709Z,13.63
2023-02-11T04:25:05.413Z,10.10
2023-02-11T04:27:33.920Z,11.63
2023-02-11T04:30:02.314Z,21.20
2023-02-11T04:32:30.199Z,10.60
2023-02-11T04:34:58.666Z,11.80
2023-02-11T04:37:26.580Z,9.97
2023-02-11T04:39:54.516Z,14.03
2023-02-11T04:42:23.090Z,11.90
2023-02-11T04:44:51.589Z,15.33
2023-02-11T04:47:20.215Z,17.53
2023-02-11T04:49:49.149Z,11.00
2023-02-11T04:52:17.613Z,14.50
2023-02-11T04:54:45.611Z,13.93
2023-02-11T04:57:13.471Z,12.60
2023-02-11T04:59:41.548Z,13.40
2023-02-11T05:02:09.868Z,11.47
2023-02-11T05:04:38.505Z,6.03
2023-02-11T05:07:10.064Z,13.23
2023-02-11T05:09:38.503Z,14.33
2023-02-11T05:12:07.089Z,23.47
2023-02-11T05:14:35.604Z,9.97
2023-02-11T05:17:04.297Z,27.53
2023-02-11T05:19:32.793Z,19.43
2023-02-11T05:22:03.304Z,21.60
2023-02-11T05:24:32.382Z,13.90
2023-02-11T05:27:00.836Z,7.33
2023-02-11T05:29:29.430Z,15.83
2023-02-11T05:31:57.800Z,13.40
2023-02-11T05:34:26.128Z,15.03
2023-02-11T05:36:54.739Z,22.43
2023-02-11T05:39:23.380Z,23.47
2023-02-11T05:41:51.180Z,22.73
2023-02-11T05:44:19.061Z,23.43
2023-02-11T05:46:47.695Z,16.40
2023-02-11T05:49:17.446Z,22.03
2023-02-11T05:51:46.003Z,17.83
2023-02-11T05:54:14.692Z,13.80
2023-02-11T05:56:44.714Z,29.87
2023-02-11T05:59:13.865Z,28.13
2023-02-11T06:01:45.857Z,26.30
2023-02-11T06:04:14.697Z,27.57
2023-02-11T06:06:44.211Z,23.80
2023-02-11T06:09:12.709Z,30.03
2023-02-11T06:11:41.297Z,38.17
2023-02-11T06:14:10.531Z,42.70
2023-02-11T06:16:39.619Z,27.87
2023-02-11T06:19:07.653Z,29.33
2023-02-11T06:21:43.939Z,40.17
2023-02-11T06:26:34.040Z,26.68
2023-02-11T06:29:02.520Z,39.60
2023-02-11T06:31:31.114Z,18.37
2023-02-11T06:33:59.411Z,28.63
2023-02-11T06:36:27.853Z,47.37
2023-02-11T06:38:55.970Z,37.10
2023-02-11T06:41:24.509Z,31.20
2023-02-11T06:43:53.292Z,29.40
2023-02-11T06:46:21.218Z,11.77
2023-02-11T06:48:49.215Z,19.87
2023-02-11T06:51:18.119Z,19.30
2023-02-11T06:53:47.872Z,20.90
2023-02-11T06:56:17.227Z,22.47
2023-02-11T06:58:45.845Z,37.37
2023-02-11T07:01:15.132Z,21.93
2023-02-11T07:03:45.024Z,46.23
2023-02-11T07:06:14.632Z,39.10
2023-02-11T07:08:43.449Z,34.43
2023-02-11T07:11:16.747Z,22.30
2023-02-11T07:13:45.335Z,30.33
2023-02-11T07:16:15.300Z,35.03
2023-02-11T07:18:47.874Z,32.10
2023-02-11T07:21:17.530Z,49.53
2023-02-11T07:23:45.901Z,58.23
2023-02-11T07:26:15.922Z,38.10
2023-02-11T07:28:44.555Z,40.93
2023-02-11T07:31:17.345Z,35.57
2023-02-11T07:33:47.680Z,37.67
2023-02-11T07:36:16.912Z,40.47
2023-02-11T07:38:44.915Z,31.00
2023-02-11T07:41:14.672Z,29.13
2023-02-11T07:43:42.957Z,40.20
2023-02-11T07:46:15.432Z,37.63
2023-02-11T07:48:44.111Z,40.77
2023-02-11T07:51:14.030Z,41.83
2023-02-11T07:53:42.872Z,38.30
2023-02-11T07:56:11.944Z,37.43
2023-02-11T07:58:42.290Z,42.20
2023-02-11T08:01:12.258Z,40.90
2023-02-11T08:03:41.986Z,39.13
2023-02-11T08:06:14.705Z,42.37
2023-02-11T08:08:43.662Z,44.90
2023-02-11T08:11:13.442Z,44.47
2023-02-11T08:13:41.937Z,51.27
2023-02-11T08:16:10.683Z,30.20
2023-02-11T08:18:39.126Z,35.30
2023-02-11T08:21:08.339Z,34.83
2023-02-11T08:23:40.605Z,32.17
2023-02-11T08:26:10.713Z,32.93
2023-02-11T08:28:42.763Z,43.77
2023-02-11T08:31:12.921Z,30.57
2023-02-11T08:33:41.888Z,25.77
2023-02-11T08:36:14.549Z,31.60
2023-02-11T08:38:42.931Z,27.00
2023-02-11T08:41:11.741Z,28.20
2023-02-11T08:43:43.396Z,32.63
2023-02-11T08:46:13.474Z,25.23
2023-02-11T08:48:42.507Z,32.30
2023-02-11T08:51:11.942Z,48.13
2023-02-11T08:53:40.968Z,32.97
2023-02-11T08:56:11.135Z,31.33
2023-02-11T08:58:39.203Z,31.37
2023-02-11T09:01:11.872Z,30.87
2023-02-11T09:03:40.646Z,30.97
2023-02-11T09:06:10.066Z,28.50
2023-02-11T09:08:39.177Z,24.57
2023-02-11T09:11:07.763Z,26.67
2023-02-11T09:13:36.888Z,29.33
2023-02-11T09:16:05.906Z,32.87
2023-02-11T09:18:34.742Z,25.47
2023-02-11T09:21:04.423Z,24.73
2023-02-11T09:23:35.087Z,32.37
2023-02-11T09:26:09.373Z,34.13
2023-02-11T09:28:38.162Z,25.17
2023-02-11T09:31:10.909Z,29.60
2023-02-11T09:33:40.284Z,30.97
2023-02-11T09:36:09.649Z,26.43
2023-02-11T09:38:38.834Z,28.70
2023-02-11T09:41:09.280Z,25.00
2023-02-11T09:43:40.567Z,35.60
2023-02-11T09:46:10.268Z,30.17
2023-02-11T09:51:07.003Z,21.45
2023-02-11T09:53:39.208Z,20.77
2023-02-11T09:56:09.314Z,26.43
2023-02-11T09:58:39.033Z,24.03
2023-02-11T10:01:25.913Z,26.27
2023-02-11T10:03:59.226Z,27.50
2023-02-11T10:06:39.343Z,24.30
2023-02-11T10:09:18.709Z,24.33
2023-02-11T10:11:48.879Z,27.30
2023-02-11T10:14:19.396Z,20.30
2023-02-11T10:17:05.680Z,28.13
2023-02-11T10:19:38.776Z,28.23
2023-02-11T10:22:09.281Z,23.33
2023-02-11T10:24:38.136Z,18.87
2023-02-11T10:27:08.419Z,19.93
2023-02-11T10:29:47.130Z,18.63
2023-02-11T10:32:16.680Z,20.17
2023-02-11T10:34:47.377Z,22.07
2023-02-11T10:37:16.475Z,18.53
2023-02-11T10:39:45.663Z,17.63
2023-02-11T10:42:14.782Z,19.00
2023-02-11T10:44:44.887Z,22.93
2023-02-11T10:47:18.034Z,22.67
2023-02-11T10:49:47.781Z,27.07
2023-02-11T10:52:21.195Z,23.37
2023-02-11T10:55:06.939Z,17.77
2023-02-11T10:57:37.289Z,19.77
2023-02-11T11:00:07.313Z,18.17
2023-02-11T11:02:39.577Z,16.40
2023-02-11T11:05:09.996Z,14.57
2023-02-11T11:07:38.320Z,19.97
2023-02-11T11:10:08.899Z,18.80
2023-02-11T11:12:48.206Z,18.83
2023-02-11T11:15:19.288Z,28.83
2023-02-11T11:17:48.062Z,18.50
2023-02-11T11:20:24.304Z,22.60
2023-02-11T11:22:53.954Z,23.97
2023-02-11T11:25:23.860Z,20.53
2023-02-11T11:30:19.811Z,18.67
2023-02-11T11:32:48.500Z,20.17
2023-02-11T11:35:24.357Z,19.13
2023-02-11T11:37:56.626Z,17.67
2023-02-11T11:40:26.365Z,16.37
2023-02-11T11:45:26.704Z,13.00
2023-02-11T11:48:02.906Z,14.30
2023-02-11T11:50:41.702Z,14.87
2023-02-11T11:53:23.651Z,15.67
2023-02-11T11:55:59.859Z,14.17
2023-02-11T11:58:29.619Z,16.90
2023-02-11T12:03:29.809Z,15.60
2023-02-11T12:06:08.155Z,15.73
2023-02-11T12:08:48.747Z,13.93
2023-02-11T12:11:19.025Z,11.53
2023-02-11T12:13:52.365Z,13.50
2023-02-11T12:16:26.510Z,11.27
2023-02-11T12:18:56.620Z,13.40
2023-02-11T12:21:34.322Z,11.27
2023-02-11T12:24:04.609Z,12.33
2023-02-11T12:26:35.407Z,15.47
2023-02-11T12:29:23.398Z,12.07
2023-02-11T12:31:58.231Z,13.37
2023-02-11T12:34:40.865Z,14.73
2023-02-11T12:37:24.395Z,13.60
2023-02-11T12:39:55.245Z,13.90
2023-02-11T12:42:44.325Z,10.70
2023-02-11T12:45:15.420Z,12.73
2023-02-11T12:48:02.442Z,11.03
2023-02-11T12:50:33.502Z,11.77
2023-02-11T12:53:04.642Z,11.10
2023-02-11T12:55:35.910Z,13.07
2023-02-11T12:58:06.492Z,10.63
2023-02-11T13:00:46.161Z,11.33
2023-02-11T13:03:18.985Z,48.90
2023-02-11T13:05:51.339Z,30.87
2023-02-11T13:08:25.322Z,27.70
2023-02-11T13:10:54.858Z,17.33
2023-02-11T13:13:24.411Z,15.00
2023-02-11T13:15:57.832Z,13.73
2023-02-11T13:18:29.167Z,16.40
2023-02-11T13:21:18.582Z,13.40
2023-02-11T13:23:48.869Z,16.53
2023-02-11T13:26:25.034Z,15.37
2023-02-11T13:28:55.966Z,13.33
2023-02-11T13:31:26.465Z,11.23
2023-02-11T13:33:55.384Z,12.93
2023-02-11T13:36:25.095Z,12.67
2023-02-11T13:38:57.776Z,12.30
2023-02-11T13:41:28.358Z,12.07
2023-02-11T13:44:01.218Z,12.87
2023-02-11T13:46:31.754Z,14.17
2023-02-11T13:48:59.910Z,12.57
2023-02-11T13:51:42.587Z,14.00
2023-02-11T13:54:13.849Z,12.00
2023-02-11T13:56:46.815Z,10.00
2023-02-11T13:59:29.199Z,10.83
2023-02-11T14:02:20.679Z,27.00
2023-02-11T14:05:23.932Z,41.67
2023-02-11T14:08:24.485Z,33.60
2023-02-11T14:10:54.121Z,12.53
2023-02-11T14:13:26.326Z,13.27
2023-02-11T14:16:11.965Z,11.47
2023-02-11T14:18:41.888Z,10.47
2023-02-11T14:21:12.098Z,10.73
2023-02-11T14:23:41.355Z,11.37
2023-02-11T14:26:23.647Z,11.90
2023-02-11T14:28:53.055Z,9.53
2023-02-11T14:31:38.585Z,13.03
2023-02-11T14:34:08.292Z,11.33
2023-02-11T14:36:44.856Z,11.23
2023-02-11T14:39:20.551Z,13.27
2023-02-11T14:41:52.888Z,13.10
2023-02-11T14:44:23.212Z,13.60
2023-02-11T14:46:54.464Z,16.97
2023-02-11T14:49:28.270Z,12.97
2023-02-11T14:52:01.677Z,12.43
2023-02-11T14:54:30.485Z,15.00
2023-02-11T14:57:12.853Z,12.00
2023-02-11T14:59:42.313Z,11.73
2023-02-11T15:02:24.850Z,15.20
2023-02-11T15:04:53.867Z,17.87
2023-02-11T15:07:23.348Z,14.83
2023-02-11T15:09:52.566Z,10.87
2023-02-11T15:12:23.672Z,15.20
2023-02-11T15:14:55.268Z,29.67
2023-02-11T15:17:26.416Z,27.10
2023-02-11T15:19:57.209Z,17.93
2023-02-11T15:22:27.892Z,12.67
2023-02-11T15:25:01.234Z,13.90
2023-02-11T15:27:29.972Z,14.13
2023-02-11T15:29:58.650Z,14.03
2023-02-11T15:32:27.599Z,16.10
2023-02-11T15:34:57.862Z,12.83
2023-02-11T15:37:27.813Z,11.53
2023-02-11T15:39:56.640Z,13.27
2023-02-11T15:42:35.808Z,12.10
2023-02-11T15:45:11.521Z,10.67
2023-02-11T15:47:41.606Z,16.37
2023-02-11T15:50:11.725Z,16.00
2023-02-11T15:52:42.475Z,16.77
2023-02-11T15:55:13.050Z,18.03
2023-02-11T15:57:43.463Z,20.23
2023-02-11T16:00:19.631Z,20.67
2023-02-11T16:02:49.993Z,21.20
2023-02-11T16:05:32.382Z,22.00
2023-02-11T16:08:01.681Z,21.93
2023-02-11T16:10:35.697Z,18.53
2023-02-11T16:13:12.064Z,23.30
2023-02-11T16:15:52.088Z,22.17
2023-02-11T16:18:30.995Z,21.03
2023-02-11T16:20:53.630Z,21.07
2023-02-11T16:25:50.399Z,23.62
2023-02-11T16:28:18.938Z,24.67
2023-02-11T16:30:48.804Z,18.77
2023-02-11T16:33:16.911Z,23.10
2023-02-11T16:35:46.685Z,18.30
2023-02-11T16:38:15.038Z,27.30
2023-02-11T16:40:44.712Z,25.33
2023-02-11T16:43:14.119Z,20.43
2023-02-11T16:45:44.494Z,23.90
2023-02-11T16:48:14.962Z,22.07
2023-02-11T16:50:44.452Z,21.03
2023-02-11T16:53:13.411Z,23.67
2023-02-11T16:55:41.915Z,23.60
2023-02-11T16:58:10.435Z,22.07
2023-02-11T17:00:39.586Z,17.50
2023-02-11T17:03:10.675Z,20.23
2023-02-11T17:05:54.321Z,19.73
2023-02-11T17:08:11.002Z,19.93
2023-02-11T17:13:06.846Z,26.20
2023-02-11T17:15:35.401Z,23.07
2023-02-11T17:18:04.219Z,20.77
2023-02-11T17:20:32.972Z,21.23
2023-02-11T17:23:01.591Z,21.77
2023-02-11T17:25:30.089Z,21.90
2023-02-11T17:27:58.259Z,18.40
2023-02-11T17:30:26.940Z,23.07
2023-02-11T17:32:55.531Z,21.60
2023-02-11T17:35:24.038Z,21.93
2023-02-11T17:37:52.797Z,18.80
2023-02-11T17:40:21.544Z,20.03
2023-02-11T17:42:50.464Z,18.70
2023-02-11T17:45:21.177Z,18.23
2023-02-11T17:47:50.802Z,20.33
2023-02-11T17:50:19.658Z,18.47
2023-02-11T17:52:48.598Z,19.53
2023-02-11T17:55:17.393Z,19.90
2023-02-11T17:57:45.374Z,23.13
2023-02-11T18:00:14.246Z,21.20
2023-02-11T18:02:42.504Z,17.17
2023-02-11T18:05:11.796Z,16.40
2023-02-11T18:07:40.400Z,20.13
2023-02-11T18:10:09.976Z,22.03
2023-02-11T18:12:38.998Z,21.90
2023-02-11T18:15:07.295Z,22.23
2023-02-11T18:17:36.075Z,21.30
2023-02-11T18:20:05.105Z,19.80
2023-02-11T18:22:35.618Z,17.87
2023-02-11T18:25:03.652Z,17.10
2023-02-11T18:27:32.644Z,15.87
2023-02-11T18:30:01.476Z,18.63
2023-02-11T18:32:30.227Z,15.27
2023-02-11T18:34:58.661Z,22.60
2023-02-11T18:37:26.973Z,19.07
2023-02-11T18:39:55.670Z,18.43
2023-02-11T18:42:24.578Z,18.00
2023-02-11T18:44:53.465Z,20.10
2023-02-11T18:47:22.151Z,21.70
2023-02-11T18:49:51.254Z,23.53
2023-02-11T18:52:20.028Z,24.70
2023-02-11T18:54:48.115Z,17.57
2023-02-11T18:57:16.586Z,21.73
2023-02-11T18:59:45.396Z,14.77
2023-02-11T19:02:13.957Z,16.10
2023-02-11T19:04:42.746Z,15.30
2023-02-11T19:07:12.018Z,18.60
2023-02-11T19:09:40.737Z,16.97
2023-02-11T19:12:10.724Z,18.97
2023-02-11T19:14:39.327Z,16.43
2023-02-11T19:17:08.984Z,17.80
2023-02-11T19:19:37.111Z,22.43
2023-02-11T19:22:10.713Z,19.23
2023-02-11T19:24:39.576Z,16.23
2023-02-11T19:27:07.693Z,18.03
2023-02-11T19:29:35.639Z,23.07
2023-02-11T19:32:06.350Z,22.00
2023-02-11T19:34:36.205Z,26.07
2023-02-11T19:37:05.085Z,24.37
2023-02-11T19:39:32.958Z,18.73
2023-02-11T19:42:01.544Z,25.23
2023-02-11T19:44:30.179Z,19.53
2023-02-11T19:46:59.119Z,19.47
2023-02-11T19:49:27.909Z,22.90
2023-02-11T19:51:58.805Z,24.90
2023-02-11T19:54:29.529Z,19.87
2023-02-11T19:56:58.681Z,18.30
2023-02-11T19:59:27.361Z,19.50
2023-02-11T20:01:55.965Z,16.60
2023-02-11T20:04:25.564Z,17.73
2023-02-11T20:06:54.241Z,14.67
2023-02-11T20:09:23.239Z,21.17
2023-02-11T20:11:52.026Z,35.63
2023-02-11T20:14:20.644Z,17.57
2023-02-11T20:16:50.310Z,14.93
2023-02-11T20:19:20.193Z,17.50
2023-02-11T20:21:50.647Z,58.73
2023-02-11T20:24:19.139Z,59.87
2023-02-11T20:26:48.964Z,35.90
2023-02-11T20:29:18.460Z,35.63
2023-02-11T20:31:47.489Z,28.83
2023-02-11T20:34:18.256Z,34.17
2023-02-11T20:36:48.598Z,33.53
2023-02-11T20:39:18.245Z,23.13
2023-02-11T20:41:47.087Z,23.10
2023-02-11T20:44:15.493Z,28.27
2023-02-11T20:46:46.782Z,23.50
2023-02-11T20:49:16.358Z,26.57
2023-02-11T20:51:44.718Z,25.77
2023-02-11T20:54:14.435Z,34.07
2023-02-11T20:56:44.503Z,25.27
2023-02-11T20:59:14.265Z,27.17
2023-02-11T21:01:43.561Z,22.30
2023-02-11T21:04:13.348Z,21.97
2023-02-11T21:06:43.571Z,20.87
2023-02-11T21:09:13.412Z,30.30
2023-02-11T21:11:42.185Z,25.83
2023-02-11T21:14:11.860Z,20.03
2023-02-11T21:16:40.415Z,22.53
2023-02-11T21:19:09.082Z,23.07
2023-02-11T21:21:37.920Z,23.17
2023-02-11T21:24:11.388Z,22.20
2023-02-11T21:26:40.611Z,21.50
2023-02-11T21:29:09.926Z,18.03
2023-02-11T21:31:38.770Z,23.93
2023-02-11T21:34:08.376Z,19.80
2023-02-11T21:36:36.502Z,20.13
2023-02-11T21:39:06.274Z,22.97
2023-02-11T21:41:35.455Z,26.50
2023-02-11T21:44:04.039Z,20.07
2023-02-11T21:46:32.860Z,20.87
2023-02-11T21:49:01.062Z,21.97
2023-02-11T21:51:29.661Z,24.87
2023-02-11T21:53:59.701Z,30.50
2023-02-11T21:58:58.624Z,15.10
2023-02-11T22:01:29.234Z,14.77
2023-02-11T22:03:58.218Z,34.47
2023-02-11T22:06:28.191Z,33.80
2023-02-11T22:08:56.520Z,31.70
2023-02-11T22:11:26.249Z,26.37
2023-02-11T22:13:55.953Z,18.13
2023-02-11T22:16:25.375Z,16.83
2023-02-11T22:18:54.349Z,17.83
2023-02-11T22:21:23.716Z,21.67
2023-02-11T22:23:52.740Z,17.60
2023-02-11T22:26:22.028Z,16.47
2023-02-11T22:28:51.123Z,16.60
2023-02-11T22:31:24.595Z,17.17
2023-02-11T22:33:53.591Z,16.37
2023-02-11T22:36:23.752Z,17.43
2023-02-11T22:38:52.378Z,17.10
2023-02-11T22:41:20.966Z,16.70
2023-02-11T22:43:49.134Z,16.80
2023-02-11T22:46:18.111Z,16.30
2023-02-11T22:48:46.692Z,16.97
2023-02-11T22:51:16.474Z,18.67
2023-02-11T22:53:45.109Z,17.30
2023-02-11T22:56:15.518Z,20.77
2023-02-11T22:58:44.603Z,13.73
2023-02-11T23:01:13.819Z,13.03
2023-02-11T23:03:42.364Z,16.47
2023-02-11T23:06:12.691Z,12.43
2023-02-11T23:08:41.836Z,11.23
2023-02-11T23:11:11.875Z,13.80
2023-02-11T23:16:08.377Z,10.10
2023-02-11T23:18:37.651Z,10.80
2023-02-11T23:21:07.332Z,13.07
2023-02-11T23:23:36.027Z,15.07
2023-02-11T23:26:04.841Z,13.00
2023-02-11T23:28:33.003Z,15.57
2023-02-11T23:31:01.944Z,18.20
2023-02-11T23:33:30.766Z,15.47
2023-02-11T23:35:59.171Z,16.90
2023-02-11T23:38:28.169Z,16.67
2023-02-11T23:40:56.235Z,14.40
2023-02-11T23:43:24.842Z,18.43
2023-02-11T23:45:54.070Z,16.07
2023-02-11T23:48:22.479Z,17.77
2023-02-11T23:50:50.693Z,16.87
2023-02-11T23:53:19.427Z,19.37
2023-02-11T23:55:48.014Z,17.60
2023-02-11T23:58:16.037Z,15.17
